Time;durP1;ratioP1;P1;durP2;ratioP2;P2;SDS_P1;SDS_P2;PMS_P1;PMS_P2;Temp;Humidity;BMP_temperature;BMP_pressure;BME280_temperature;BME280_humidity;BME280_pressure;Samples;Min_cycle;Max_cycle;Signal;HPM_P1;HPM_P2
2024/01/14 00:02:19;;;;;;;69.67;28.87;;;3.20;99.90;;;;;;7284158;19;20188;-80
2024/01/14 00:04:47;;;;;;;79.33;30.53;;;3.40;99.90;;;;;;7281597;19;20202;-80
2024/01/14 00:07:12;;;;;;;76.20;29.83;;;3.50;99.90;;;;;;7283226;19;20195;-79
2024/01/14 00:09:38;;;;;;;68.73;29.13;;;3.60;99.90;;;;;;7283331;19;20628;-80
2024/01/14 00:12:05;;;;;;;78.53;29.30;;;3.60;99.90;;;;;;7279340;19;20990;-80
2024/01/14 00:14:31;;;;;;;72.87;29.67;;;3.50;99.90;;;;;;7284325;19;20220;-81
2024/01/14 00:16:56;;;;;;;71.63;29.07;;;3.60;99.90;;;;;;7305631;19;20188;-80
2024/01/14 00:19:22;;;;;;;70.63;28.73;;;3.60;99.90;;;;;;7282859;19;20199;-79
2024/01/14 00:21:48;;;;;;;70.57;28.30;;;3.60;99.90;;;;;;7279303;19;20210;-79
2024/01/14 00:24:15;;;;;;;74.90;28.60;;;3.60;99.90;;;;;;7282119;19;20191;-80
2024/01/14 00:26:41;;;;;;;69.13;28.43;;;3.50;99.90;;;;;;7280094;19;20213;-80
2024/01/14 00:29:07;;;;;;;71.10;28.53;;;3.50;99.90;;;;;;7282644;19;20191;-79
2024/01/14 00:31:33;;;;;;;66.23;27.57;;;3.50;99.90;;;;;;7280384;19;20194;-80
2024/01/14 00:33:58;;;;;;;72.57;26.93;;;3.40;99.90;;;;;;7299876;19;20213;-80
2024/01/14 00:36:24;;;;;;;76.70;28.60;;;3.50;99.90;;;;;;7294085;19;20205;-80
2024/01/14 00:38:50;;;;;;;68.90;27.30;;;3.40;99.90;;;;;;7282291;19;20191;-80
2024/01/14 00:41:16;;;;;;;75.93;28.10;;;3.30;99.90;;;;;;7280701;19;21004;-80
2024/01/14 00:43:43;;;;;;;72.33;27.87;;;3.40;99.90;;;;;;7279544;19;20184;-79
2024/01/14 00:46:09;;;;;;;68.43;27.07;;;3.40;99.90;;;;;;7282935;19;20527;-80
2024/01/14 00:48:36;;;;;;;68.77;26.50;;;3.40;99.90;;;;;;7282818;19;20482;-79
2024/01/14 00:51:01;;;;;;;71.17;26.07;;;3.30;99.90;;;;;;7280220;19;20212;-79
2024/01/14 00:53:27;;;;;;;74.73;28.80;;;3.30;99.90;;;;;;7304873;19;20187;-79
2024/01/14 00:55:53;;;;;;;74.60;26.93;;;3.30;99.90;;;;;;7279875;19;20189;-80
2024/01/14 00:58:19;;;;;;;76.47;27.40;;;3.30;99.90;;;;;;7281739;19;20215;-80
2024/01/14 01:00:44;;;;;;;67.70;26.00;;;3.30;99.90;;;;;;7280046;19;20184;-79
2024/01/14 01:03:10;;;;;;;66.17;26.37;;;3.30;99.90;;;;;;7282539;19;20616;-80
2024/01/14 01:05:36;;;;;;;71.97;28.83;;;3.40;99.90;;;;;;7282736;19;20198;-79
2024/01/14 01:08:02;;;;;;;66.30;27.00;;;3.40;99.90;;;;;;7283269;19;20302;-79
2024/01/14 01:10:28;;;;;;;75.33;28.10;;;3.30;99.90;;;;;;7303447;19;20195;-79
2024/01/14 01:12:55;;;;;;;65.40;26.50;;;3.30;99.90;;;;;;7280708;19;20275;-80
2024/01/14 01:15:21;;;;;;;72.23;28.00;;;3.40;99.90;;;;;;7281886;19;20198;-80
2024/01/14 01:17:47;;;;;;;74.43;27.87;;;3.50;99.90;;;;;;7282178;19;20216;-80
2024/01/14 01:20:13;;;;;;;75.10;27.90;;;3.50;99.90;;;;;;7280673;19;20886;-80
2024/01/14 01:22:39;;;;;;;72.10;28.17;;;3.50;99.90;;;;;;7280297;19;20193;-79
2024/01/14 01:25:05;;;;;;;66.20;26.70;;;3.60;99.90;;;;;;7281347;19;20204;-80
2024/01/14 01:27:32;;;;;;;72.60;27.23;;;3.70;99.90;;;;;;7279587;19;20703;-80
2024/01/14 01:29:57;;;;;;;69.40;27.80;;;3.80;99.90;;;;;;7303376;19;20665;-79
2024/01/14 01:32:23;;;;;;;70.93;27.70;;;3.50;99.90;;;;;;7280658;19;20191;-80
2024/01/14 01:34:49;;;;;;;76.43;26.80;;;3.50;99.90;;;;;;7288355;19;20684;-80
2024/01/14 01:37:15;;;;;;;66.00;26.73;;;3.50;99.90;;;;;;7286692;19;20194;-80
2024/01/14 01:39:41;;;;;;;65.10;26.23;;;3.50;99.90;;;;;;7286683;19;20511;-79
2024/01/14 01:42:07;;;;;;;70.90;27.20;;;3.50;99.90;;;;;;7287362;19;20196;-80
2024/01/14 01:44:33;;;;;;;65.63;26.73;;;3.60;99.90;;;;;;7287670;19;20196;-80
2024/01/14 01:47:00;;;;;;;69.37;26.60;;;3.60;99.90;;;;;;7300734;19;20697;-80
2024/01/14 01:49:30;;;;;;;68.73;27.20;;;3.70;99.90;;;;;;7307652;19;20185;-80
2024/01/14 01:51:59;;;;;;;67.77;26.97;;;3.70;99.90;;;;;;7284215;19;20191;-80
2024/01/14 01:54:27;;;;;;;69.47;27.00;;;3.70;99.90;;;;;;7286807;19;20261;-79
2024/01/14 01:56:54;;;;;;;68.13;27.37;;;3.70;99.90;;;;;;7287252;19;20182;-80
2024/01/14 01:59:21;;;;;;;62.13;26.90;;;3.70;99.90;;;;;;7285449;19;20201;-80
2024/01/14 02:01:51;;;;;;;71.60;27.40;;;3.80;99.90;;;;;;7286196;19;20186;-79
2024/01/14 02:04:18;;;;;;;74.87;28.67;;;3.90;99.90;;;;;;7288390;19;20216;-80
2024/01/14 02:06:44;;;;;;;68.23;27.57;;;3.90;99.90;;;;;;7285532;19;20189;-79
2024/01/14 02:09:10;;;;;;;68.60;27.27;;;4.00;99.90;;;;;;7287672;19;20195;-80
2024/01/14 02:11:37;;;;;;;64.83;26.50;;;3.80;99.90;;;;;;7287043;19;20190;-79
2024/01/14 02:14:03;;;;;;;70.23;28.33;;;3.60;99.90;;;;;;7286074;19;20590;-80
2024/01/14 02:16:29;;;;;;;73.67;26.00;;;3.50;99.90;;;;;;7303692;19;20196;-81
2024/01/14 02:18:55;;;;;;;66.90;26.13;;;3.40;99.90;;;;;;7302019;19;20189;-80
2024/01/14 02:21:24;;;;;;;71.07;26.43;;;3.30;99.90;;;;;;7286020;19;20205;-79
2024/01/14 02:23:56;;;;;;;69.07;27.77;;;3.30;99.90;;;;;;7286929;19;20245;-80
2024/01/14 02:26:22;;;;;;;72.23;26.97;;;3.20;99.90;;;;;;7287324;19;20697;-79
2024/01/14 02:28:48;;;;;;;65.90;26.07;;;3.30;99.90;;;;;;7286806;19;20532;-79
2024/01/14 02:31:15;;;;;;;74.20;28.53;;;3.20;99.90;;;;;;7287356;19;20190;-80
2024/01/14 02:33:41;;;;;;;72.63;27.93;;;3.20;99.90;;;;;;7284875;19;20655;-80
2024/01/14 02:36:06;;;;;;;69.30;27.37;;;3.30;99.90;;;;;;7285069;19;20207;-79
2024/01/14 02:38:32;;;;;;;81.37;29.70;;;3.30;99.90;;;;;;7283585;19;20206;-79
2024/01/14 02:40:58;;;;;;;71.80;27.83;;;3.10;99.90;;;;;;7308011;19;20297;-80
2024/01/14 02:43:23;;;;;;;74.87;28.23;;;3.10;99.90;;;;;;7286381;19;20222;-79
2024/01/14 02:45:49;;;;;;;79.53;28.90;;;3.10;99.90;;;;;;7282177;19;20657;-80
2024/01/14 02:48:15;;;;;;;72.47;25.97;;;3.10;99.90;;;;;;7285453;19;20197;-79
2024/01/14 02:50:41;;;;;;;73.27;26.87;;;3.20;99.90;;;;;;7284143;19;20197;-79
2024/01/14 02:53:07;;;;;;;72.90;27.17;;;3.10;99.90;;;;;;7285692;19;20494;-79
2024/01/14 02:55:33;;;;;;;70.33;27.57;;;3.10;99.90;;;;;;7287557;19;20220;-80
2024/01/14 02:57:59;;;;;;;74.00;27.23;;;3.20;99.90;;;;;;7302556;19;20606;-80
2024/01/14 03:00:25;;;;;;;75.10;27.73;;;3.20;99.90;;;;;;7297768;19;20189;-80
2024/01/14 03:02:51;;;;;;;70.17;27.43;;;3.40;99.90;;;;;;7286407;19;20209;-80
2024/01/14 03:05:17;;;;;;;72.70;26.60;;;3.40;99.90;;;;;;7287317;19;20186;-80
2024/01/14 03:07:43;;;;;;;69.80;25.80;;;3.30;99.90;;;;;;7284856;19;20193;-80
2024/01/14 03:10:08;;;;;;;76.83;28.53;;;3.30;99.90;;;;;;7285411;19;20190;-80
2024/01/14 03:12:34;;;;;;;69.13;26.63;;;3.30;99.90;;;;;;7286166;19;20211;-80
2024/01/14 03:15:00;;;;;;;72.70;27.83;;;3.40;99.90;;;;;;7302582;19;20177;-79
2024/01/14 03:17:26;;;;;;;71.07;27.30;;;3.40;99.90;;;;;;7302998;19;20647;-80
2024/01/14 03:19:52;;;;;;;68.07;26.23;;;3.40;99.90;;;;;;7285357;19;20584;-79
2024/01/14 03:22:18;;;;;;;70.13;26.80;;;3.50;99.90;;;;;;7281330;19;20202;-80
2024/01/14 03:24:44;;;;;;;68.67;26.47;;;3.60;99.90;;;;;;7279637;19;20202;-79
2024/01/14 03:27:10;;;;;;;72.80;26.93;;;3.60;99.90;;;;;;7282867;19;20270;-78
2024/01/14 03:29:36;;;;;;;72.20;26.40;;;3.50;99.90;;;;;;7284075;19;20706;-80
2024/01/14 03:32:02;;;;;;;68.43;26.10;;;3.50;99.90;;;;;;7283682;19;20195;-80
2024/01/14 03:34:27;;;;;;;65.93;25.37;;;3.50;99.90;;;;;;7305768;19;20197;-80
2024/01/14 03:36:53;;;;;;;69.33;26.57;;;3.40;99.90;;;;;;7283774;19;20545;-79
2024/01/14 03:39:19;;;;;;;67.83;25.23;;;3.50;99.90;;;;;;7280991;19;20337;-80
2024/01/14 03:41:45;;;;;;;66.80;26.33;;;3.30;99.90;;;;;;7284883;19;20669;-80
2024/01/14 03:44:11;;;;;;;68.20;25.17;;;3.30;99.90;;;;;;7281259;19;20178;-79
2024/01/14 03:46:37;;;;;;;64.53;24.33;;;3.40;99.90;;;;;;7283032;19;20997;-80
2024/01/14 03:49:02;;;;;;;69.37;25.03;;;3.30;99.90;;;;;;7282386;19;20209;-80
2024/01/14 03:51:28;;;;;;;64.50;24.60;;;3.40;99.90;;;;;;7304514;19;20315;-80
2024/01/14 03:53:54;;;;;;;65.83;24.67;;;3.40;99.90;;;;;;7283416;19;20596;-80
2024/01/14 03:56:19;;;;;;;62.93;24.70;;;3.40;99.90;;;;;;7280380;19;20198;-80
2024/01/14 03:58:45;;;;;;;63.27;24.27;;;3.40;99.90;;;;;;7280407;19;20256;-80
2024/01/14 04:01:18;;;;;;;63.50;24.23;;;3.40;99.90;;;;;;7282709;19;20188;-79
2024/01/14 04:03:44;;;;;;;62.67;23.53;;;3.50;99.90;;;;;;7282393;19;20199;-80
2024/01/14 04:06:10;;;;;;;59.57;23.57;;;3.50;99.90;;;;;;7283035;19;20188;-79
2024/01/14 04:08:35;;;;;;;64.90;23.07;;;3.60;99.90;;;;;;7282856;19;20181;-80
2024/01/14 04:11:01;;;;;;;67.40;23.43;;;3.60;99.90;;;;;;7286521;19;20188;-79
2024/01/14 04:13:27;;;;;;;55.23;22.40;;;3.70;99.90;;;;;;7306581;19;20574;-80
2024/01/14 04:15:56;;;;;;;64.87;23.53;;;3.60;99.90;;;;;;7283990;19;20216;-80
2024/01/14 04:18:22;;;;;;;60.33;22.23;;;3.50;99.90;;;;;;7281507;19;20221;-80
2024/01/14 04:20:48;;;;;;;59.07;22.50;;;3.50;99.90;;;;;;7284353;19;20182;-80
2024/01/14 04:23:13;;;;;;;56.47;21.93;;;3.50;99.90;;;;;;7284392;19;20197;-80
2024/01/14 04:25:39;;;;;;;54.07;21.27;;;3.50;99.90;;;;;;7280783;19;20267;-79
2024/01/14 04:28:05;;;;;;;61.30;22.43;;;3.40;99.90;;;;;;7280565;19;20210;-80
2024/01/14 04:30:31;;;;;;;55.60;22.40;;;3.50;99.90;;;;;;7286669;19;20198;-79
2024/01/14 04:32:57;;;;;;;60.93;23.37;;;3.50;99.90;;;;;;7302899;19;20672;-79
2024/01/14 04:35:23;;;;;;;57.23;21.67;;;3.40;99.90;;;;;;7284085;19;20186;-80
2024/01/14 04:37:49;;;;;;;59.60;22.13;;;3.40;99.90;;;;;;7281932;19;21467;-80
2024/01/14 04:40:15;;;;;;;52.27;20.97;;;3.50;99.90;;;;;;7281821;19;20187;-79
2024/01/14 04:42:40;;;;;;;62.83;23.13;;;3.50;99.90;;;;;;7283474;19;20223;-80
2024/01/14 04:45:07;;;;;;;51.53;21.70;;;3.40;99.90;;;;;;7282615;19;20196;-79
2024/01/14 04:47:33;;;;;;;59.97;22.07;;;3.40;99.90;;;;;;7282292;19;20620;-80
2024/01/14 04:49:58;;;;;;;55.90;22.30;;;3.50;99.90;;;;;;7305511;19;20189;-80
2024/01/14 04:52:24;;;;;;;60.83;23.00;;;3.40;99.90;;;;;;7281314;19;20211;-79
2024/01/14 04:54:50;;;;;;;54.67;21.80;;;3.30;99.90;;;;;;7284415;19;20314;-80
2024/01/14 04:57:15;;;;;;;54.67;22.40;;;3.30;99.90;;;;;;7278475;19;20192;-80
2024/01/14 04:59:41;;;;;;;55.93;21.63;;;3.40;99.90;;;;;;7282364;19;20191;-80
2024/01/14 05:02:07;;;;;;;52.83;20.60;;;3.40;99.90;;;;;;7281113;19;20185;-79
2024/01/14 05:04:33;;;;;;;57.87;21.83;;;3.20;99.90;;;;;;7282204;19;20186;-79
2024/01/14 05:06:59;;;;;;;54.93;22.23;;;3.10;99.90;;;;;;7303454;19;20205;-80
2024/01/14 05:09:25;;;;;;;62.43;22.77;;;3.10;99.90;;;;;;7288581;19;20265;-79
2024/01/14 05:11:51;;;;;;;58.67;21.80;;;3.10;99.90;;;;;;7287600;19;20183;-80
2024/01/14 05:14:17;;;;;;;55.60;23.40;;;3.00;99.90;;;;;;7288456;19;20202;-79
2024/01/14 05:16:42;;;;;;;55.47;21.80;;;3.00;99.90;;;;;;7287650;19;20221;-80
2024/01/14 05:19:09;;;;;;;49.30;20.53;;;2.90;99.90;;;;;;7287451;19;20194;-79
2024/01/14 05:21:35;;;;;;;57.53;21.77;;;2.90;99.90;;;;;;7287749;19;20189;-80
2024/01/14 05:24:01;;;;;;;60.00;22.57;;;2.90;99.90;;;;;;7296313;19;20299;-80
2024/01/14 05:26:27;;;;;;;52.13;21.47;;;3.00;99.90;;;;;;7310642;19;20193;-79
2024/01/14 05:28:54;;;;;;;55.87;22.47;;;2.90;99.90;;;;;;7286810;19;20642;-80
2024/01/14 05:31:20;;;;;;;56.70;23.00;;;3.00;99.90;;;;;;7287638;19;20212;-79
2024/01/14 05:33:45;;;;;;;56.70;22.07;;;2.90;99.90;;;;;;7289410;19;20290;-79
2024/01/14 05:36:11;;;;;;;59.13;21.77;;;2.90;99.90;;;;;;7286454;19;20195;-79
2024/01/14 05:38:37;;;;;;;59.27;23.27;;;2.90;99.90;;;;;;7288713;19;20183;-80
2024/01/14 05:41:03;;;;;;;57.37;20.93;;;2.90;99.90;;;;;;7287785;19;20196;-80
2024/01/14 05:43:29;;;;;;;62.57;23.70;;;2.80;99.90;;;;;;7308989;19;20181;-79
2024/01/14 05:45:54;;;;;;;60.47;23.17;;;2.70;99.90;;;;;;7285786;19;20263;-80
2024/01/14 05:48:20;;;;;;;55.47;21.67;;;2.70;99.90;;;;;;7287873;19;20199;-80
2024/01/14 05:50:46;;;;;;;57.23;22.83;;;2.70;99.90;;;;;;7286599;19;20189;-80
2024/01/14 05:53:11;;;;;;;63.40;23.10;;;2.70;99.90;;;;;;7288239;19;20191;-79
2024/01/14 05:55:37;;;;;;;64.07;23.47;;;2.80;99.90;;;;;;7287563;19;20200;-80
2024/01/14 05:58:03;;;;;;;56.00;21.97;;;3.00;99.90;;;;;;7288358;19;20827;-79
2024/01/14 06:00:29;;;;;;;65.70;23.53;;;3.10;99.90;;;;;;7310139;19;20186;-80
2024/01/14 06:02:54;;;;;;;62.70;23.70;;;3.20;99.90;;;;;;7288179;19;20192;-79
2024/01/14 06:05:20;;;;;;;59.77;22.10;;;3.20;99.90;;;;;;7288146;19;20206;-79
2024/01/14 06:07:46;;;;;;;60.03;22.90;;;3.30;99.90;;;;;;7287994;19;20200;-80
2024/01/14 06:10:12;;;;;;;56.63;21.63;;;3.20;99.90;;;;;;7285427;19;20186;-80
2024/01/14 06:12:38;;;;;;;56.53;22.13;;;3.20;99.90;;;;;;7286264;19;20361;-80
2024/01/14 06:15:03;;;;;;;64.63;24.33;;;3.30;99.90;;;;;;7286571;19;20625;-80
2024/01/14 06:17:29;;;;;;;60.13;21.57;;;3.30;99.90;;;;;;7309883;19;20206;-80
2024/01/14 06:19:55;;;;;;;60.10;22.87;;;3.30;99.90;;;;;;7287654;19;20293;-79
2024/01/14 06:22:20;;;;;;;62.33;22.67;;;3.30;99.90;;;;;;7287174;19;20541;-79
2024/01/14 06:24:46;;;;;;;60.93;22.80;;;3.30;99.90;;;;;;7285537;19;20187;-79
2024/01/14 06:27:12;;;;;;;66.00;23.57;;;3.50;99.90;;;;;;7286917;19;20606;-80
2024/01/14 06:29:40;;;;;;;59.10;22.23;;;3.50;99.90;;;;;;7286069;19;20213;-80
2024/01/14 06:32:06;;;;;;;62.27;23.40;;;3.60;99.90;;;;;;7286166;19;20729;-80
2024/01/14 06:34:32;;;;;;;59.53;21.93;;;3.60;99.90;;;;;;7285772;19;20186;-80
2024/01/14 06:36:58;;;;;;;55.43;22.47;;;3.50;99.90;;;;;;7308049;19;20190;-79
2024/01/14 06:39:24;;;;;;;54.37;21.17;;;3.50;99.90;;;;;;7284415;19;20206;-79
2024/01/14 06:41:51;;;;;;;55.90;21.70;;;3.50;99.90;;;;;;7285494;19;20798;-79
2024/01/14 06:44:17;;;;;;;57.47;22.37;;;3.40;99.90;;;;;;7283948;19;20200;-79
2024/01/14 06:46:43;;;;;;;54.27;21.83;;;3.20;99.90;;;;;;7286618;19;20193;-79
2024/01/14 06:49:09;;;;;;;57.33;21.57;;;3.20;99.90;;;;;;7285000;19;20214;-79
2024/01/14 06:51:43;;;;;;;55.13;22.83;;;3.30;99.90;;;;;;7285723;19;20182;-79
2024/01/14 06:54:09;;;;;;;51.67;20.53;;;3.30;99.90;;;;;;7286113;19;20644;-80
2024/01/14 06:56:44;;;;;;;57.73;22.07;;;3.40;99.90;;;;;;7287064;19;20200;-79
2024/01/14 06:59:18;;;;;;;54.87;21.10;;;3.40;99.90;;;;;;7286491;19;20198;-79
2024/01/14 07:01:47;;;;;;;54.43;21.87;;;3.40;99.90;;;;;;7286301;19;20812;-80
2024/01/14 07:04:13;;;;;;;55.97;21.93;;;3.30;99.90;;;;;;7285167;19;20202;-79
2024/01/14 07:06:39;;;;;;;55.33;21.77;;;3.30;99.90;;;;;;7285360;19;20202;-81
2024/01/14 07:09:05;;;;;;;59.03;22.10;;;3.30;99.90;;;;;;7285466;19;20594;-79
2024/01/14 07:11:31;;;;;;;52.20;20.87;;;3.30;99.90;;;;;;7303519;19;20194;-81
2024/01/14 07:13:58;;;;;;;51.27;21.47;;;3.30;99.90;;;;;;7299662;19;20208;-80
2024/01/14 07:16:24;;;;;;;56.23;21.93;;;3.30;99.90;;;;;;7286707;19;20207;-79
2024/01/14 07:18:50;;;;;;;52.63;20.37;;;3.30;99.90;;;;;;7285159;19;22259;-79
2024/01/14 07:21:20;;;;;;;51.47;20.87;;;3.40;99.90;;;;;;7285202;19;20201;-80
2024/01/14 07:23:46;;;;;;;49.90;20.70;;;3.40;99.90;;;;;;7284968;19;20204;-83
2024/01/14 07:26:17;;;;;;;56.30;22.17;;;3.30;99.90;;;;;;7283698;19;20199;-81
2024/01/14 07:28:43;;;;;;;50.30;20.20;;;3.30;99.90;;;;;;7283726;19;20195;-79
2024/01/14 07:31:09;;;;;;;48.47;19.73;;;3.40;99.90;;;;;;7282078;19;20190;-80
2024/01/14 07:33:35;;;;;;;52.73;21.27;;;3.30;99.90;;;;;;7284961;19;20186;-79
2024/01/14 07:36:04;;;;;;;48.93;20.67;;;3.30;99.90;;;;;;7295945;19;20270;-80
2024/01/14 07:38:29;;;;;;;48.50;20.33;;;3.20;99.90;;;;;;7306224;19;20265;-79
2024/01/14 07:40:56;;;;;;;46.50;19.00;;;3.10;99.90;;;;;;7285279;19;20205;-81
2024/01/14 07:43:21;;;;;;;49.40;20.20;;;3.30;99.90;;;;;;7285416;19;20528;-79
2024/01/14 07:45:49;;;;;;;52.60;21.17;;;3.20;99.90;;;;;;7283759;19;20197;-79
2024/01/14 07:48:15;;;;;;;50.13;20.10;;;3.20;99.90;;;;;;7283588;19;20212;-81
2024/01/14 07:50:40;;;;;;;53.50;20.37;;;3.20;99.90;;;;;;7283726;19;20191;-80
2024/01/14 07:53:07;;;;;;;56.93;21.07;;;3.20;99.90;;;;;;7285099;19;20186;-80
2024/01/14 07:55:33;;;;;;;49.00;19.97;;;3.20;99.90;;;;;;7283076;19;20205;-79
2024/01/14 07:57:58;;;;;;;50.60;20.33;;;3.10;99.90;;;;;;7303743;19;20695;-80
2024/01/14 08:00:24;;;;;;;52.13;20.40;;;3.10;99.90;;;;;;7280837;19;20897;-80
2024/01/14 08:02:50;;;;;;;53.90;21.13;;;3.10;99.90;;;;;;7285604;19;20229;-80
2024/01/14 08:05:16;;;;;;;56.33;20.57;;;3.20;99.90;;;;;;7282538;19;20190;-81
2024/01/14 08:07:41;;;;;;;53.60;21.20;;;3.20;99.90;;;;;;7283361;19;20992;-80
2024/01/14 08:10:09;;;;;;;53.03;22.00;;;3.20;99.90;;;;;;7282279;19;20205;-80
2024/01/14 08:12:35;;;;;;;53.30;20.37;;;3.20;99.90;;;;;;7282974;19;20193;-80
2024/01/14 08:15:01;;;;;;;53.00;20.73;;;3.20;99.90;;;;;;7296960;19;20189;-79
2024/01/14 08:17:28;;;;;;;46.03;20.13;;;3.20;99.90;;;;;;7299814;19;20185;-79
2024/01/14 08:19:53;;;;;;;48.73;19.93;;;3.30;99.90;;;;;;7283170;19;20526;-79
2024/01/14 08:22:19;;;;;;;48.93;20.00;;;3.40;99.90;;;;;;7283611;19;20203;-79
2024/01/14 08:24:45;;;;;;;49.93;20.27;;;3.40;99.90;;;;;;7282451;19;20617;-79
2024/01/14 08:27:11;;;;;;;53.80;21.13;;;3.50;99.90;;;;;;7282112;19;20212;-79
2024/01/14 08:29:36;;;;;;;51.33;20.47;;;3.50;99.90;;;;;;7282400;19;20220;-79
2024/01/14 08:32:02;;;;;;;47.97;20.40;;;3.40;99.90;;;;;;7288686;19;20197;-80
2024/01/14 08:34:28;;;;;;;54.07;21.37;;;3.30;99.90;;;;;;7303572;19;20192;-79
2024/01/14 08:36:54;;;;;;;51.77;21.67;;;3.30;99.90;;;;;;7281452;19;20215;-80
2024/01/14 08:39:19;;;;;;;50.70;21.47;;;3.30;99.90;;;;;;7281206;19;20568;-80
2024/01/14 08:41:46;;;;;;;51.53;20.73;;;3.20;99.90;;;;;;7283539;19;20191;-78
2024/01/14 08:44:11;;;;;;;53.80;21.63;;;3.10;99.90;;;;;;7279292;19;20218;-79
2024/01/14 08:46:41;;;;;;;55.83;22.20;;;3.10;99.90;;;;;;7282955;19;20190;-79
2024/01/14 08:49:07;;;;;;;55.10;22.30;;;3.30;99.90;;;;;;7281854;19;20209;-79
2024/01/14 08:51:33;;;;;;;49.57;20.20;;;3.30;99.90;;;;;;7292917;19;20651;-79
2024/01/14 08:54:01;;;;;;;49.83;20.67;;;3.30;99.90;;;;;;7304146;19;20211;-79
2024/01/14 08:56:29;;;;;;;51.53;20.77;;;3.40;99.90;;;;;;7283232;19;20544;-81
2024/01/14 08:58:56;;;;;;;50.90;21.50;;;3.40;99.90;;;;;;7279656;19;20212;-79
2024/01/14 09:01:22;;;;;;;57.17;22.80;;;3.40;99.90;;;;;;7281155;19;20200;-81
2024/01/14 09:03:48;;;;;;;48.33;20.60;;;3.40;99.90;;;;;;7278798;19;20187;-80
2024/01/14 09:06:14;;;;;;;50.73;21.33;;;3.30;99.90;;;;;;7282195;19;20553;-80
2024/01/14 09:08:40;;;;;;;49.47;20.50;;;3.30;99.90;;;;;;7281192;19;20192;-80
2024/01/14 09:11:07;;;;;;;49.83;20.17;;;3.30;99.90;;;;;;7281005;19;20185;-80
2024/01/14 09:13:33;;;;;;;46.80;19.63;;;3.40;99.90;;;;;;7285901;19;20240;-81
2024/01/14 09:15:58;;;;;;;47.33;19.77;;;3.40;99.90;;;;;;7305082;19;20224;-80
2024/01/14 09:18:25;;;;;;;47.90;18.67;;;3.50;99.90;;;;;;7281446;19;20206;-80
2024/01/14 09:20:51;;;;;;;46.27;19.27;;;3.40;99.90;;;;;;7281109;19;20213;-80
2024/01/14 09:23:17;;;;;;;44.03;18.63;;;3.30;99.90;;;;;;7279873;19;20188;-79
2024/01/14 09:25:42;;;;;;;44.70;18.77;;;3.20;99.90;;;;;;7280608;19;20204;-80
2024/01/14 09:28:08;;;;;;;44.60;19.00;;;3.30;99.90;;;;;;7280071;19;20317;-80
2024/01/14 09:30:34;;;;;;;43.50;18.77;;;3.40;99.90;;;;;;7279299;19;20629;-80
2024/01/14 09:33:00;;;;;;;43.70;19.23;;;3.40;99.90;;;;;;7301833;19;20186;-80
2024/01/14 09:35:26;;;;;;;40.83;17.90;;;3.40;99.90;;;;;;7282720;19;20701;-80
2024/01/14 09:37:51;;;;;;;41.63;16.50;;;3.40;99.90;;;;;;7278994;19;20209;-80
2024/01/14 09:40:17;;;;;;;42.13;17.83;;;3.30;99.90;;;;;;7280620;19;20200;-81
2024/01/14 09:42:47;;;;;;;43.67;18.00;;;3.30;99.90;;;;;;7280888;19;20194;-80
2024/01/14 09:45:13;;;;;;;37.63;17.17;;;3.40;99.90;;;;;;7280489;19;20522;-79
2024/01/14 09:47:42;;;;;;;40.20;16.83;;;3.40;99.90;;;;;;7281818;19;20177;-80
2024/01/14 09:50:10;;;;;;;41.27;17.37;;;3.40;99.90;;;;;;7279891;19;20218;-79
2024/01/14 09:52:39;;;;;;;40.63;16.90;;;3.20;99.90;;;;;;7278002;19;20565;-79
2024/01/14 09:55:06;;;;;;;40.20;16.97;;;3.40;99.90;;;;;;7283015;19;20210;-79
2024/01/14 09:57:34;;;;;;;37.70;16.87;;;3.40;99.90;;;;;;7305109;19;20196;-78
2024/01/14 10:00:08;;;;;;;40.83;16.93;;;3.40;99.90;;;;;;7309363;19;20257;-80
2024/01/14 10:02:34;;;;;;;39.60;17.07;;;3.40;99.90;;;;;;7264565;19;20188;-78
2024/01/14 10:05:00;;;;;;;43.23;17.53;;;3.40;99.90;;;;;;7308773;19;20262;-79
2024/01/14 10:07:26;;;;;;;38.20;17.17;;;3.50;99.90;;;;;;7282695;19;20191;-79
2024/01/14 10:09:52;;;;;;;41.57;17.90;;;3.50;99.90;;;;;;7281814;19;20716;-79
2024/01/14 10:12:18;;;;;;;38.87;16.70;;;3.50;99.90;;;;;;7280431;19;20253;-78
2024/01/14 10:14:45;;;;;;;38.03;16.37;;;3.60;99.90;;;;;;7281205;19;20562;-79
2024/01/14 10:17:14;;;;;;;39.57;17.60;;;3.70;99.90;;;;;;7278847;19;20214;-79
2024/01/14 10:19:39;;;;;;;38.67;17.43;;;3.80;99.90;;;;;;7286683;19;20187;-80
2024/01/14 10:22:06;;;;;;;36.93;16.87;;;3.90;99.90;;;;;;7285811;19;20210;-80
2024/01/14 10:24:33;;;;;;;42.00;19.03;;;3.80;99.90;;;;;;7300078;19;20187;-79
2024/01/14 10:26:59;;;;;;;39.67;18.30;;;3.80;99.90;;;;;;7308059;19;20190;-79
2024/01/14 10:29:25;;;;;;;39.33;18.10;;;3.80;99.90;;;;;;7285409;19;20732;-79
2024/01/14 10:31:51;;;;;;;42.77;18.80;;;3.90;99.90;;;;;;7287864;19;20546;-80
2024/01/14 10:34:20;;;;;;;39.63;17.10;;;4.00;99.90;;;;;;7286459;19;20619;-79
2024/01/14 10:36:46;;;;;;;44.07;19.10;;;3.90;99.90;;;;;;7285623;19;20199;-80
2024/01/14 10:39:12;;;;;;;43.10;18.93;;;3.90;99.90;;;;;;7286776;19;20192;-80
2024/01/14 10:41:39;;;;;;;41.60;18.97;;;4.00;99.90;;;;;;7285809;19;20545;-79
2024/01/14 10:44:05;;;;;;;46.47;19.20;;;4.00;99.90;;;;;;7284935;19;20203;-79
2024/01/14 10:46:34;;;;;;;42.90;18.43;;;4.10;99.90;;;;;;7308033;19;20225;-80
2024/01/14 10:49:11;;;;;;;44.27;18.50;;;4.00;99.90;;;;;;7286209;19;20622;-79
2024/01/14 10:51:42;;;;;;;43.40;18.83;;;3.90;99.90;;;;;;7183489;19;2004382;-79
2024/01/14 10:54:25;;;;;;;46.50;19.40;;;3.60;99.90;;;;;;7284186;19;20202;-79
2024/01/14 10:57:10;;;;;;;42.07;18.63;;;3.60;99.90;;;;;;7285308;19;20193;-79
2024/01/14 10:59:38;;;;;;;41.97;18.27;;;3.60;99.90;;;;;;7285869;19;20212;-79
2024/01/14 11:02:15;;;;;;;45.43;19.07;;;3.60;99.90;;;;;;7274685;19;20197;-80
2024/01/14 11:04:43;;;;;;;44.40;19.60;;;3.60;99.90;;;;;;7279529;19;20665;-80
2024/01/14 11:07:10;;;;;;;39.00;18.20;;;3.60;99.90;;;;;;7276810;19;20203;-78
2024/01/14 11:09:38;;;;;;;44.80;20.10;;;3.40;99.90;;;;;;7278722;19;20194;-79
2024/01/14 11:12:14;;;;;;;39.67;19.23;;;3.50;99.90;;;;;;7278439;19;20200;-79
2024/01/14 11:14:47;;;;;;;41.63;18.17;;;3.60;99.90;;;;;;7282624;19;20284;-79
2024/01/14 11:17:52;;;;;;;44.43;20.13;;;3.70;99.90;;;;;;7282514;19;20186;-79
2024/01/14 11:20:23;;;;;;;43.67;19.13;;;3.60;99.90;;;;;;7177866;19;2005090;-79
2024/01/14 11:22:51;;;;;;;47.13;18.73;;;3.60;99.90;;;;;;7279755;19;20189;-79
2024/01/14 11:25:22;;;;;;;43.63;18.10;;;3.60;99.90;;;;;;7278299;19;20225;-79
2024/01/14 11:27:48;;;;;;;47.87;19.60;;;3.50;99.90;;;;;;7280027;19;20214;-78
2024/01/14 11:30:18;;;;;;;49.87;20.33;;;3.50;99.90;;;;;;7279079;19;20187;-78
2024/01/14 11:32:44;;;;;;;47.90;20.20;;;3.40;99.90;;;;;;7279445;19;20182;-79
2024/01/14 11:35:30;;;;;;;48.57;20.47;;;3.40;99.90;;;;;;7279868;19;20240;-79
2024/01/14 11:37:56;;;;;;;47.20;19.43;;;3.40;99.90;;;;;;7276129;19;21000;-79
2024/01/14 11:40:28;;;;;;;44.17;18.63;;;3.60;99.90;;;;;;7279946;19;20222;-79
2024/01/14 11:43:16;;;;;;;45.73;19.27;;;3.40;99.90;;;;;;7279827;19;20219;-79
2024/01/14 11:45:41;;;;;;;54.47;23.23;;;3.40;99.90;;;;;;7174330;19;2004903;-79
2024/01/14 11:48:11;;;;;;;50.83;23.87;;;3.70;99.90;;;;;;7279194;19;20195;-78
2024/01/14 11:50:39;;;;;;;50.60;21.60;;;3.70;99.90;;;;;;7278655;19;20661;-79
2024/01/14 11:53:07;;;;;;;53.00;22.00;;;3.40;99.90;;;;;;7281854;19;20213;-79
2024/01/14 11:55:33;;;;;;;51.30;22.83;;;3.40;99.90;;;;;;7300755;19;20203;-79
2024/01/14 11:58:10;;;;;;;49.53;22.37;;;3.50;99.90;;;;;;7279977;19;20675;-79
2024/01/14 12:00:36;;;;;;;60.13;23.37;;;3.70;99.90;;;;;;7256674;19;20186;-80
2024/01/14 12:03:10;;;;;;;52.37;24.23;;;3.60;99.90;;;;;;7301912;19;20192;-79
2024/01/14 12:05:36;;;;;;;78.60;32.70;;;3.70;99.90;;;;;;7256361;19;20195;-79
2024/01/14 12:08:03;;;;;;;53.53;23.90;;;3.80;99.90;;;;;;7298834;19;20216;-79
2024/01/14 12:10:31;;;;;;;84.20;46.20;;;3.90;99.90;;;;;;7277167;19;20199;-79
2024/01/14 12:13:07;;;;;;;137.37;61.03;;;4.00;99.90;;;;;;7279163;19;20186;-79
2024/01/14 12:15:33;;;;;;;50.97;21.73;;;4.10;99.90;;;;;;7277569;19;21197;-79
2024/01/14 12:18:00;;;;;;;45.57;19.33;;;4.10;99.90;;;;;;7287409;19;20282;-79
2024/01/14 12:20:27;;;;;;;43.00;19.53;;;4.10;99.90;;;;;;7277691;19;20192;-79
2024/01/14 12:22:58;;;;;;;46.10;19.87;;;3.90;99.90;;;;;;7278118;19;20249;-80
2024/01/14 12:25:23;;;;;;;44.67;19.17;;;4.00;99.90;;;;;;7279082;19;20293;-79
2024/01/14 12:27:49;;;;;;;42.33;20.00;;;4.00;99.90;;;;;;7277486;19;20190;-80
2024/01/14 12:30:34;;;;;;;49.00;21.07;;;4.10;99.90;;;;;;7278327;19;20200;-79
2024/01/14 12:33:07;;;;;;;46.10;20.47;;;4.30;99.90;;;;;;7279442;19;20213;-80
2024/01/14 12:35:37;;;;;;;43.80;19.57;;;4.30;99.90;;;;;;7277429;19;20191;-79